createdAt,value
2022-10-17T00:01:44.415Z,11.35
2022-10-17T00:04:31.222Z,11.23
2022-10-17T00:07:18.085Z,11.23
2022-10-17T00:10:06.285Z,10.99
2022-10-17T00:12:53.034Z,11.24
2022-10-17T00:15:43.745Z,11.27
2022-10-17T00:18:30.049Z,11.14
2022-10-17T00:21:20.175Z,11.06
2022-10-17T00:24:06.818Z,11.08
2022-10-17T00:26:53.006Z,11.05
2022-10-17T00:29:39.186Z,11.10
2022-10-17T00:32:25.792Z,10.98
2022-10-17T00:35:12.129Z,10.88
2022-10-17T00:37:58.331Z,11.12
2022-10-17T00:40:45.177Z,10.86
2022-10-17T00:44:01.687Z,10.96
2022-10-17T00:46:48.165Z,11.09
2022-10-17T00:49:36.638Z,10.99
2022-10-17T00:52:26.495Z,11.15
2022-10-17T00:55:21.417Z,11.15
2022-10-17T00:58:08.408Z,11.00
2022-10-17T01:00:54.694Z,11.16
2022-10-17T01:03:41.219Z,11.03
2022-10-17T01:06:27.399Z,10.93
2022-10-17T01:09:13.915Z,11.02
2022-10-17T01:12:10.758Z,11.13
2022-10-17T01:15:30.777Z,11.05
2022-10-17T01:18:41.831Z,11.07
2022-10-17T01:21:37.494Z,11.00
2022-10-17T01:24:29.909Z,11.16
2022-10-17T01:27:35.275Z,11.13
2022-10-17T01:30:59.271Z,11.20
2022-10-17T01:33:51.689Z,11.15
2022-10-17T01:36:47.467Z,11.04
2022-10-17T01:39:47.781Z,11.23
2022-10-17T01:42:46.108Z,11.12
2022-10-17T01:45:43.298Z,11.11
2022-10-17T01:48:35.384Z,11.10
2022-10-17T01:51:27.992Z,11.11
2022-10-17T01:54:37.248Z,11.07
2022-10-17T01:57:30.850Z,10.79
2022-10-17T02:00:22.141Z,11.11
2022-10-17T02:03:15.525Z,10.76
2022-10-17T02:06:04.559Z,11.03
2022-10-17T02:08:51.649Z,10.75
2022-10-17T02:11:39.680Z,10.74
2022-10-17T02:14:46.054Z,10.79
2022-10-17T02:17:44.359Z,10.78
2022-10-17T02:20:52.582Z,10.74
2022-10-17T02:23:41.865Z,10.74
2022-10-17T02:26:32.356Z,10.67
2022-10-17T02:29:28.448Z,10.68
2022-10-17T02:32:25.251Z,10.54
2022-10-17T02:35:15.164Z,10.44
2022-10-17T02:38:02.365Z,10.49
2022-10-17T02:40:51.580Z,10.32
2022-10-17T02:43:39.574Z,10.45
2022-10-17T02:46:28.491Z,10.20
2022-10-17T02:49:23.145Z,10.46
2022-10-17T02:52:58.026Z,10.49
2022-10-17T02:55:58.995Z,10.29
2022-10-17T02:58:51.311Z,10.40
2022-10-17T03:01:38.062Z,10.21
2022-10-17T03:04:24.312Z,10.31
2022-10-17T03:07:10.947Z,10.12
2022-10-17T03:09:57.549Z,10.17
2022-10-17T03:12:43.970Z,10.00
2022-10-17T03:15:31.378Z,10.11
2022-10-17T03:18:18.398Z,9.96
2022-10-17T03:21:06.302Z,10.00
2022-10-17T03:23:53.493Z,10.08
2022-10-17T03:26:42.123Z,9.91
2022-10-17T03:29:28.422Z,10.03
2022-10-17T03:32:16.105Z,9.84
2022-10-17T03:35:03.414Z,10.05
2022-10-17T03:37:50.048Z,9.91
2022-10-17T03:40:38.554Z,9.65
2022-10-17T03:43:24.954Z,9.93
2022-10-17T03:46:11.419Z,9.79
2022-10-17T03:48:58.042Z,9.86
2022-10-17T03:51:44.854Z,9.84
2022-10-17T03:54:34.233Z,9.67
2022-10-17T03:57:21.103Z,9.80
2022-10-17T04:00:08.675Z,9.69
2022-10-17T04:03:00.415Z,9.65
2022-10-17T04:05:46.909Z,9.68
2022-10-17T04:08:34.202Z,9.65
2022-10-17T04:11:40.754Z,9.58
2022-10-17T04:14:27.403Z,9.54
2022-10-17T04:17:14.122Z,9.55
2022-10-17T04:20:00.350Z,9.50
2022-10-17T04:22:47.278Z,9.43
2022-10-17T04:25:36.078Z,9.52
2022-10-17T04:28:23.738Z,9.42
2022-10-17T04:31:13.009Z,9.48
2022-10-17T04:34:18.787Z,9.52
2022-10-17T04:37:05.304Z,9.34
2022-10-17T04:39:53.055Z,9.31
2022-10-17T04:42:39.853Z,9.40
2022-10-17T04:45:27.736Z,9.34
2022-10-17T04:48:17.810Z,9.43
2022-10-17T04:51:15.810Z,9.42
2022-10-17T04:54:31.398Z,9.31
2022-10-17T04:57:25.928Z,9.35
2022-10-17T05:00:23.186Z,9.48
2022-10-17T05:03:21.492Z,9.44
2022-10-17T05:06:10.891Z,9.34
2022-10-17T05:08:58.748Z,9.43
2022-10-17T05:11:45.840Z,9.52
2022-10-17T05:14:32.606Z,9.52
2022-10-17T05:17:20.051Z,9.53
2022-10-17T05:20:07.100Z,9.50
2022-10-17T05:22:55.290Z,9.46
2022-10-17T05:25:41.844Z,9.44
2022-10-17T05:28:28.357Z,9.47
2022-10-17T05:31:18.746Z,9.49
2022-10-17T05:34:07.957Z,9.39
2022-10-17T05:36:57.738Z,9.40
2022-10-17T05:39:47.952Z,9.42
2022-10-17T05:42:37.641Z,9.41
2022-10-17T05:45:24.407Z,9.24
2022-10-17T05:48:10.715Z,9.14
2022-10-17T05:51:02.029Z,9.51
2022-10-17T05:53:49.294Z,9.25
2022-10-17T05:56:42.529Z,9.48
2022-10-17T05:59:29.100Z,9.23
2022-10-17T06:02:21.821Z,9.42
2022-10-17T06:05:08.614Z,9.42
2022-10-17T06:07:58.163Z,9.33
2022-10-17T06:10:51.514Z,9.50
2022-10-17T06:13:39.113Z,9.52
2022-10-17T06:16:32.723Z,9.52
2022-10-17T06:19:19.359Z,9.53
2022-10-17T06:22:07.469Z,9.53
2022-10-17T06:24:55.893Z,9.70
2022-10-17T06:27:42.697Z,9.66
2022-10-17T06:30:30.572Z,9.82
2022-10-17T06:33:17.885Z,9.80
2022-10-17T06:36:05.674Z,9.87
2022-10-17T06:38:51.845Z,9.95
2022-10-17T06:41:47.789Z,9.70
2022-10-17T06:44:37.707Z,9.90
2022-10-17T06:48:02.618Z,10.16
2022-10-17T06:51:12.431Z,10.19
2022-10-17T06:54:07.911Z,10.15
2022-10-17T06:57:14.495Z,10.24
2022-10-17T07:00:26.845Z,10.36
2022-10-17T07:03:15.907Z,10.49
2022-10-17T07:06:02.852Z,10.55
2022-10-17T07:08:50.405Z,10.72
2022-10-17T07:11:38.202Z,10.89
2022-10-17T07:14:31.695Z,10.86
2022-10-17T07:17:19.102Z,10.92
2022-10-17T07:20:06.933Z,11.20
2022-10-17T07:22:55.693Z,11.32
2022-10-17T07:25:42.121Z,11.47
2022-10-17T07:28:29.779Z,11.53
2022-10-17T07:31:22.593Z,11.85
2022-10-17T07:34:08.777Z,11.94
2022-10-17T07:36:55.331Z,12.05
2022-10-17T07:39:42.514Z,12.17
2022-10-17T07:42:30.109Z,12.32
2022-10-17T07:45:18.143Z,12.47
2022-10-17T07:48:05.137Z,12.45
2022-10-17T07:50:51.708Z,12.55
2022-10-17T07:53:39.829Z,12.64
2022-10-17T07:56:29.547Z,12.95
2022-10-17T07:59:19.380Z,12.96
2022-10-17T08:02:08.065Z,13.06
2022-10-17T08:04:54.449Z,13.11
2022-10-17T08:07:41.650Z,13.25
2022-10-17T08:10:29.566Z,13.38
2022-10-17T08:13:16.070Z,13.66
2022-10-17T08:16:03.873Z,13.73
2022-10-17T08:18:50.455Z,13.65
2022-10-17T08:21:38.139Z,13.77
2022-10-17T08:24:24.874Z,13.85
2022-10-17T08:27:13.428Z,13.96
2022-10-17T08:29:59.750Z,14.13
2022-10-17T08:32:46.114Z,14.28
2022-10-17T08:35:32.314Z,14.44
2022-10-17T08:38:20.989Z,14.55
2022-10-17T08:41:33.046Z,14.61
2022-10-17T08:44:33.602Z,15.01
2022-10-17T08:47:28.262Z,15.08
2022-10-17T08:50:21.622Z,15.17
2022-10-17T08:53:27.520Z,15.29
2022-10-17T08:56:25.051Z,15.38
2022-10-17T08:59:25.473Z,15.48
2022-10-17T09:02:30.525Z,15.65
2022-10-17T09:05:35.317Z,15.69
2022-10-17T09:08:53.273Z,15.98
2022-10-17T09:11:57.929Z,16.06
2022-10-17T09:14:58.588Z,16.27
2022-10-17T09:17:53.075Z,16.28
2022-10-17T09:20:53.975Z,16.41
2022-10-17T09:23:49.545Z,16.62
2022-10-17T09:26:36.549Z,16.89
2022-10-17T09:29:25.349Z,17.13
2022-10-17T09:32:17.442Z,17.35
2022-10-17T09:35:04.605Z,17.53
2022-10-17T09:37:52.343Z,17.75
2022-10-17T09:40:40.195Z,17.86
2022-10-17T09:43:27.005Z,18.10
2022-10-17T09:46:26.969Z,18.42
2022-10-17T09:49:18.554Z,18.48
2022-10-17T09:52:12.024Z,18.73
2022-10-17T09:55:18.035Z,18.91
2022-10-17T09:58:07.047Z,19.05
2022-10-17T10:00:53.517Z,19.24
2022-10-17T10:03:39.761Z,19.24
2022-10-17T10:06:26.137Z,19.67
2022-10-17T10:09:27.477Z,19.78
2022-10-17T10:12:26.844Z,19.87
2022-10-17T10:15:32.685Z,19.90
2022-10-17T10:18:25.316Z,20.18
2022-10-17T10:21:15.266Z,20.32
2022-10-17T10:24:06.688Z,20.49
2022-10-17T10:26:55.830Z,20.79
2022-10-17T10:29:49.397Z,20.85
2022-10-17T10:32:37.277Z,20.83
2022-10-17T10:35:34.526Z,20.94
2022-10-17T10:38:20.957Z,21.08
2022-10-17T10:41:11.696Z,21.04
2022-10-17T10:43:58.317Z,21.07
2022-10-17T10:46:44.682Z,21.18
2022-10-17T10:49:32.234Z,21.11
2022-10-17T10:52:31.435Z,21.20
2022-10-17T10:55:24.855Z,21.50
2022-10-17T10:58:40.277Z,21.45
2022-10-17T11:01:54.000Z,21.64
2022-10-17T11:05:00.421Z,21.73
2022-10-17T11:07:53.201Z,21.76
2022-10-17T11:10:51.074Z,21.54
2022-10-17T11:14:03.578Z,21.73
2022-10-17T11:17:17.242Z,21.73
2022-10-17T11:20:10.002Z,21.85
2022-10-17T11:23:03.092Z,21.93
2022-10-17T11:25:51.838Z,21.86
2022-10-17T11:28:38.357Z,22.11
2022-10-17T11:31:30.969Z,22.13
2022-10-17T11:34:26.103Z,22.19
2022-10-17T11:37:28.158Z,22.13
2022-10-17T11:40:23.636Z,22.30
2022-10-17T11:43:17.575Z,22.25
2022-10-17T11:46:21.433Z,22.22
2022-10-17T11:49:20.402Z,22.27
2022-10-17T11:52:55.341Z,22.41
2022-10-17T11:55:44.348Z,22.34
2022-10-17T11:58:45.438Z,22.46
2022-10-17T12:01:49.258Z,22.74
2022-10-17T12:04:49.705Z,22.71
2022-10-17T12:07:51.349Z,22.61
2022-10-17T12:10:46.861Z,22.62
2022-10-17T12:13:33.351Z,22.63
2022-10-17T12:16:19.753Z,22.70
2022-10-17T12:19:23.478Z,22.81
2022-10-17T12:22:22.798Z,22.65
2022-10-17T12:25:18.976Z,22.88
2022-10-17T12:28:25.918Z,22.99
2022-10-17T12:31:33.427Z,22.99
2022-10-17T12:34:23.817Z,22.72
2022-10-17T12:37:11.784Z,22.87
2022-10-17T12:39:57.948Z,22.93
2022-10-17T12:42:50.969Z,22.73
2022-10-17T12:45:53.627Z,23.15
2022-10-17T12:48:39.737Z,23.22
2022-10-17T12:51:35.737Z,23.27
2022-10-17T12:54:23.954Z,23.38
2022-10-17T12:57:44.634Z,23.53
2022-10-17T13:00:49.711Z,23.42
2022-10-17T13:03:48.852Z,23.49
2022-10-17T13:06:40.312Z,23.49
2022-10-17T13:09:30.482Z,23.54
2022-10-17T13:12:25.013Z,23.61
2022-10-17T13:15:18.589Z,23.63
2022-10-17T13:18:05.510Z,23.66
2022-10-17T13:21:00.362Z,23.65
2022-10-17T13:23:49.223Z,23.68
2022-10-17T13:26:35.665Z,23.65
2022-10-17T13:29:23.410Z,23.75
2022-10-17T13:32:11.107Z,23.82
2022-10-17T13:35:13.163Z,23.74
2022-10-17T13:38:00.741Z,23.63
2022-10-17T13:40:50.720Z,23.64
2022-10-17T13:43:37.067Z,23.68
2022-10-17T13:46:39.903Z,23.59
2022-10-17T13:49:36.871Z,23.37
2022-10-17T13:52:30.731Z,23.13
2022-10-17T13:55:20.138Z,22.94
2022-10-17T13:58:15.396Z,22.73
2022-10-17T14:01:02.264Z,22.67
2022-10-17T14:03:54.056Z,22.37
2022-10-17T14:06:51.267Z,22.37
2022-10-17T14:09:38.491Z,22.21
2022-10-17T14:12:25.288Z,22.16
2022-10-17T14:15:15.773Z,22.07
2022-10-17T14:18:07.835Z,21.83
2022-10-17T14:21:34.008Z,22.18
2022-10-17T14:24:26.183Z,22.11
2022-10-17T14:27:31.799Z,22.25
2022-10-17T14:30:51.689Z,22.29
2022-10-17T14:33:36.334Z,22.34
2022-10-17T14:36:34.955Z,22.22
2022-10-17T14:39:24.222Z,22.45
2022-10-17T14:42:21.602Z,22.41
2022-10-17T14:45:14.728Z,22.56
2022-10-17T14:48:10.393Z,22.48
2022-10-17T14:51:14.091Z,22.59
2022-10-17T14:54:22.244Z,22.58
2022-10-17T14:57:19.688Z,22.55
2022-10-17T15:00:06.557Z,22.72
2022-10-17T15:02:54.960Z,22.67
2022-10-17T15:05:41.615Z,22.58
2022-10-17T15:08:27.761Z,22.53
2022-10-17T15:11:14.286Z,22.32
2022-10-17T15:14:00.733Z,22.27
2022-10-17T15:16:46.937Z,22.28
2022-10-17T15:19:33.382Z,22.21
2022-10-17T15:22:20.160Z,22.11
2022-10-17T15:25:06.858Z,22.20
2022-10-17T15:27:53.585Z,22.17
2022-10-17T15:30:40.164Z,22.15
2022-10-17T15:33:26.466Z,21.99
2022-10-17T15:36:37.386Z,21.88
2022-10-17T15:39:23.816Z,21.70
2022-10-17T15:42:11.872Z,21.83
2022-10-17T15:44:58.525Z,21.63
2022-10-17T15:47:55.719Z,21.34
2022-10-17T15:50:42.314Z,21.37
2022-10-17T15:53:28.444Z,21.34
2022-10-17T15:56:24.905Z,21.17
2022-10-17T15:59:15.376Z,20.98
2022-10-17T16:02:01.454Z,20.78
2022-10-17T16:04:49.741Z,20.79
2022-10-17T16:07:36.772Z,20.56
2022-10-17T16:10:23.888Z,20.41
2022-10-17T16:13:18.108Z,20.16
2022-10-17T16:16:04.471Z,20.10
2022-10-17T16:18:50.713Z,19.89
2022-10-17T16:21:39.905Z,19.61
2022-10-17T16:24:26.278Z,19.34
2022-10-17T16:27:12.526Z,19.05
2022-10-17T16:29:59.027Z,18.95
2022-10-17T16:32:45.991Z,18.78
2022-10-17T16:35:36.527Z,18.52
2022-10-17T16:38:23.914Z,18.31
2022-10-17T16:41:20.395Z,18.17
2022-10-17T16:44:08.493Z,17.98
2022-10-17T16:46:54.642Z,17.70
2022-10-17T16:49:44.402Z,17.65
2022-10-17T16:52:31.985Z,17.59
2022-10-17T16:55:18.953Z,17.41
2022-10-17T16:58:05.136Z,17.31
2022-10-17T17:00:51.369Z,17.12
2022-10-17T17:03:39.137Z,17.13
2022-10-17T17:06:28.733Z,17.01
2022-10-17T17:09:14.911Z,16.82
2022-10-17T17:12:01.202Z,16.84
2022-10-17T17:14:47.364Z,16.63
2022-10-17T17:17:50.258Z,16.53
2022-10-17T17:20:38.974Z,16.38
2022-10-17T17:23:25.551Z,16.41
2022-10-17T17:26:15.126Z,16.41
2022-10-17T17:29:02.202Z,16.16
2022-10-17T17:31:49.234Z,16.17
2022-10-17T17:34:36.942Z,16.07
2022-10-17T17:37:23.369Z,15.87
2022-10-17T17:40:10.533Z,15.95
2022-10-17T17:42:56.758Z,15.92
2022-10-17T17:45:42.880Z,15.70
2022-10-17T17:48:29.446Z,15.77
2022-10-17T17:51:18.416Z,15.69
2022-10-17T17:54:05.145Z,15.57
2022-10-17T17:56:51.585Z,15.48
2022-10-17T17:59:39.621Z,15.53
2022-10-17T18:02:25.718Z,15.37
2022-10-17T18:05:11.797Z,15.37
2022-10-17T18:07:58.643Z,15.31
2022-10-17T18:10:50.591Z,15.34
2022-10-17T18:13:36.654Z,15.19
2022-10-17T18:16:23.066Z,15.17
2022-10-17T18:19:11.445Z,15.10
2022-10-17T18:21:57.678Z,15.03
2022-10-17T18:24:44.154Z,14.99
2022-10-17T18:27:30.586Z,14.72
2022-10-17T18:30:16.638Z,14.91
2022-10-17T18:33:02.917Z,14.79
2022-10-17T18:35:49.239Z,14.77
2022-10-17T18:38:35.853Z,14.60
2022-10-17T18:41:24.425Z,14.81
2022-10-17T18:44:12.589Z,14.68
2022-10-17T18:47:03.020Z,14.86
2022-10-17T18:49:51.428Z,14.82
2022-10-17T18:52:37.897Z,14.79
2022-10-17T18:55:24.963Z,14.66
2022-10-17T18:58:11.328Z,14.66
2022-10-17T19:01:03.573Z,14.66
2022-10-17T19:03:51.908Z,14.41
2022-10-17T19:06:39.598Z,14.51
2022-10-17T19:09:25.899Z,14.41
2022-10-17T19:12:12.087Z,14.32
2022-10-17T19:14:58.303Z,14.36
2022-10-17T19:17:44.750Z,14.26
2022-10-17T19:20:31.059Z,14.08
2022-10-17T19:23:17.151Z,14.13
2022-10-17T19:26:12.381Z,14.12
2022-10-17T19:29:00.512Z,14.07
2022-10-17T19:31:48.683Z,14.06
2022-10-17T19:34:35.261Z,13.91
2022-10-17T19:37:21.550Z,13.96
2022-10-17T19:40:08.818Z,13.98
2022-10-17T19:42:54.956Z,13.81
2022-10-17T19:45:41.485Z,13.88
2022-10-17T19:48:30.754Z,13.88
2022-10-17T19:51:18.673Z,13.80
2022-10-17T19:54:04.906Z,13.69
2022-10-17T19:56:51.768Z,13.59
2022-10-17T19:59:38.087Z,13.60
2022-10-17T20:02:24.444Z,13.60
2022-10-17T20:05:18.619Z,13.57
2022-10-17T20:08:05.440Z,13.55
2022-10-17T20:10:51.882Z,13.60
2022-10-17T20:13:38.999Z,13.57
2022-10-17T20:16:30.046Z,13.54
2022-10-17T20:19:16.343Z,13.36
2022-10-17T20:22:05.641Z,13.50
2022-10-17T20:24:59.194Z,13.29
2022-10-17T20:27:46.614Z,13.35
2022-10-17T20:30:33.592Z,13.34
2022-10-17T20:33:20.793Z,13.27
2022-10-17T20:36:16.576Z,13.14
2022-10-17T20:39:03.168Z,13.18
2022-10-17T20:41:49.764Z,13.06
2022-10-17T20:44:36.626Z,12.85
2022-10-17T20:47:47.179Z,12.99
2022-10-17T20:50:37.470Z,13.00
2022-10-17T20:53:39.225Z,12.81
2022-10-17T20:56:29.795Z,12.94
2022-10-17T20:59:17.189Z,12.85
2022-10-17T21:02:05.442Z,12.74
2022-10-17T21:04:51.762Z,12.83
2022-10-17T21:07:38.254Z,12.78
2022-10-17T21:10:34.872Z,12.70
2022-10-17T21:13:21.695Z,12.57
2022-10-17T21:16:19.203Z,12.69
2022-10-17T21:19:06.289Z,12.56
2022-10-17T21:21:52.660Z,12.59
2022-10-17T21:24:38.949Z,12.66
2022-10-17T21:27:25.285Z,12.70
2022-10-17T21:30:11.794Z,12.62
2022-10-17T21:32:58.677Z,12.44
2022-10-17T21:35:45.346Z,12.46
2022-10-17T21:38:31.742Z,12.51
2022-10-17T21:41:21.340Z,12.52
2022-10-17T21:44:15.273Z,12.33
2022-10-17T21:47:01.542Z,12.33
2022-10-17T21:49:47.745Z,12.30
2022-10-17T21:52:34.086Z,12.26
2022-10-17T21:55:20.821Z,12.36
2022-10-17T21:58:07.288Z,12.28
2022-10-17T22:01:01.923Z,12.35
2022-10-17T22:03:50.414Z,12.29
2022-10-17T22:06:40.632Z,12.17
2022-10-17T22:09:27.658Z,12.27
2022-10-17T22:12:13.905Z,12.16
2022-10-17T22:15:00.569Z,12.37
2022-10-17T22:17:47.093Z,12.31
2022-10-17T22:20:34.963Z,12.17
2022-10-17T22:23:21.496Z,12.13
2022-10-17T22:26:08.579Z,12.19
2022-10-17T22:28:55.629Z,12.19
2022-10-17T22:31:42.435Z,12.20
2022-10-17T22:34:28.829Z,12.21
2022-10-17T22:37:15.226Z,12.24
2022-10-17T22:40:01.997Z,12.18
2022-10-17T22:42:48.303Z,11.99
2022-10-17T22:45:35.020Z,11.96
2022-10-17T22:48:22.269Z,11.96
2022-10-17T22:51:08.593Z,12.05
2022-10-17T22:53:54.985Z,12.03
2022-10-17T22:56:41.146Z,11.83
2022-10-17T22:59:27.339Z,11.89
2022-10-17T23:02:13.971Z,12.15
2022-10-17T23:05:00.199Z,12.04
2022-10-17T23:07:46.318Z,11.80
2022-10-17T23:10:33.373Z,11.85
2022-10-17T23:13:21.184Z,11.91
2022-10-17T23:16:08.399Z,11.73
2022-10-17T23:18:54.689Z,11.79
2022-10-17T23:21:40.861Z,11.82
2022-10-17T23:24:27.470Z,11.75
2022-10-17T23:27:14.080Z,11.41
2022-10-17T23:30:00.214Z,11.71
2022-10-17T23:32:46.628Z,11.47
2022-10-17T23:35:33.935Z,11.53
2022-10-17T23:38:20.000Z,11.59
2022-10-17T23:41:06.752Z,11.41
2022-10-17T23:43:53.487Z,11.50
2022-10-17T23:46:39.658Z,11.46
2022-10-17T23:49:25.694Z,11.49
2022-10-17T23:52:12.038Z,11.39
2022-10-17T23:54:58.444Z,11.46
2022-10-17T23:57:44.830Z,11.43
